Flight Track Log - Related Links

Times and Time Zones

All times are in EDT time to prevent confusion due to time zone crossing. See the CPA879 flight status page for this flight to view local times or setup timezone preferences in your user account.

Time Position Orientation Groundspeed Altitude Reporting Facility
EDT Latitude Longitude Course Direction KTS MPH feet Rate Location/Type
Wed 05:07:42 PM 37.7780 -122.6750 303° West 318 366 5,800  Level FlightAware ADS-B
Wed 05:08:12 PM 37.8030 -122.7220 304° West 317 365 6,400 1,091 Climbing FlightAware ADS-B
Wed 05:08:37 PM 37.8230 -122.7600 304° West 322 371 6,800 545 Climbing FlightAware ADS-B
Wed 05:09:07 PM 37.8480 -122.8060 305° West 325 374 6,900 133 Climbing FlightAware ADS-B
Wed 05:09:22 PM 37.8610 -122.8310 303° West 323 372 6,900  Level FlightAware ADS-B
Wed 05:09:47 PM 37.8800 -122.8660 305° West 323 372 6,900 1,091 Level FlightAware ADS-B
Wed 05:10:17 PM 37.9070 -122.9170 304° West 327 376 7,900 2,100 Climbing FlightAware ADS-B
Wed 05:10:47 PM 37.9320 -122.9640 304° West 327 376 9,000 2,291 Climbing FlightAware ADS-B
Wed 05:11:12 PM 37.9550 -123.0060 305° West 331 381 10,000 1,371 Climbing FlightAware ADS-B
Wed 05:11:57 PM 37.9960 -123.0780 306° West 361 415 10,600 847 Climbing FlightAware ADS-B
Wed 05:12:37 PM 38.0550 -123.1230 329° Northwest 390 449 11,200 1,040 Climbing FlightAware ADS-B
Wed 05:13:12 PM 38.1130 -123.1620 332° Northwest 410 472 11,900 525 Climbing FlightAware ADS-B
Wed 05:13:57 PM 38.1790 -123.2070 332° Northwest 410 472 11,900  Level FlightAware ADS-B
Wed 05:14:37 PM 38.2360 -123.2450 332° Northwest 410 472 11,900 2,235 Level FlightAware ADS-B
Wed 05:18:12 PM 38.6480 -123.5140 333° Northwest 420 483 21,400 2,400 Climbing FlightAware ADS-B
Wed 05:18:52 PM 38.7190 -123.5620 332° Northwest 437 503 22,100 695 Climbing FlightAware ADS-B
Wed 05:19:47 PM 38.8160 -123.6270 332° Northwest 451 519 22,500 540 Climbing FlightAware ADS-B
Wed 05:20:32 PM 38.9060 -123.6870 333° Northwest 475 547 23,000 867 Climbing FlightAware ADS-B
Wed 05:21:17 PM 38.9930 -123.7490 331° Northwest 481 554 23,800 960 Climbing FlightAware ADS-B
Wed 05:21:47 PM 39.0420 -123.7960 323° Northwest 479 551 24,200 282 Climbing FlightAware ADS-B
Wed 05:22:42 PM 39.1230 -123.8830 320° Northwest 479 551 24,200  Level FlightAware ADS-B
Wed 05:23:12 PM 39.1660 -123.9300 320° Northwest 479 551 24,200 1,371 Level FlightAware ADS-B
Wed 05:25:37 PM 39.4390 -124.2350 319° Northwest 493 567 28,200 1,123 Climbing FlightAware ADS-B
Wed 05:28:22 PM 39.7190 -124.5500 319° Northwest 476 548 30,000 527 Climbing FlightAware ADS-B
Wed 05:29:02 PM 39.7740 -124.6160 317° Northwest 476 548 30,000  Level FlightAware ADS-B
Wed 05:29:42 PM 39.8300 -124.6810 318° Northwest 476 548 30,000  Level FlightAware ADS-B
Wed 05:30:22 PM 39.8860 -124.7460 318° Northwest 476 548 30,000  Level FlightAware ADS-B
Wed 05:31:12 PM 39.9550 -124.8280 318° Northwest 476 548 30,000  Level FlightAware ADS-B
Wed 05:31:52 PM 40.0110 -124.8930 318° Northwest 476 548 30,000  Level FlightAware ADS-B
Wed 05:32:32 PM 40.0670 -124.9590 318° Northwest 476 548 30,000  Level FlightAware ADS-B
Wed 05:33:12 PM 40.1220 -125.0240 318° Northwest 476 548 30,000  Level FlightAware ADS-B
Wed 05:33:52 PM 40.1780 -125.0900 318° Northwest 476 548 30,000  Level FlightAware ADS-B
Wed 05:34:42 PM 40.2470 -125.1720 318° Northwest 476 548 30,000  Level FlightAware ADS-B
Wed 05:35:22 PM 40.3030 -125.2370 318° Northwest 476 548 30,000  Level FlightAware ADS-B
Wed 05:36:02 PM 40.3590 -125.3030 318° Northwest 476 548 30,000  Level FlightAware ADS-B
Wed 05:36:42 PM 40.4140 -125.3690 318° Northwest 476 548 30,000  Level FlightAware ADS-B
Wed 05:37:22 PM 40.4700 -125.4350 318° Northwest 476 548 30,000  Level FlightAware ADS-B
Wed 05:38:06 PM 40.6794 -125.6492 318° Northwest 475 547 30,000  Level Oakland Center
Wed 05:39:02 PM 40.7758 -125.7650 318° Northwest 474 545 30,000  Level Seattle Center
Wed 05:40:03 PM 40.8739 -125.8814 318° Northwest 474 545 30,000  Level Seattle Center
Wed 05:41:04 PM 40.9725 -125.9964 319° Northwest 474 545 30,000  Level Seattle Center
Wed 05:42:12 PM 41.0900 -126.1364 318° Northwest 473 544 30,000  Level Oakland Center
Wed 05:43:14 PM 41.1878 -126.2531 318° Northwest 473 544 30,000  Level Oakland Center
Wed 05:44:15 PM 41.2847 -126.3711 318° Northwest 474 545 30,000  Level Oakland Center
Wed 05:45:08 PM 41.3639 -126.4639 319° Northwest 474 545 30,000  Level Seattle Center
Wed 05:46:09 PM 41.4611 -126.5803 318° Northwest 473 544 30,000  Level Seattle Center
Wed 05:47:10 PM 41.5753 -126.7236 317° Northwest 472 543 30,000  Level Seattle Center
Wed 05:49:00 PM 41.7567 -126.9439 318° Northwest  Level FlightAware Approximate
Wed 05:53:45 PM 42.2000 -127.5167 317° Northwest 476 548 30,000  Level Oakland Oceanic (ODAPS)
Wed 05:56:00 PM 42.4570 -127.8197 317° Northwest  Level FlightAware Approximate
Wed 05:57:00 PM 42.5565 -127.9463 317° Northwest  Level FlightAware Approximate
Wed 05:57:20 PM 42.5500 -127.9500 317° Northwest 469 540 30,000  Level Oakland Oceanic (ODAPS)
Wed 05:58:00 PM 42.6559 -128.0734 317° Northwest  Level FlightAware Approximate
Wed 05:58:15 PM 42.6333 -128.0500 317° Northwest 472 543 30,000  Level Oakland Oceanic (ODAPS)
Wed 05:59:00 PM 42.7551 -128.2009 317° Northwest  Level FlightAware Approximate
Wed 06:00:00 PM 42.8057 -128.2791 317° Northwest 476 548 30,000  Level FlightAware Transoceanic
Wed 06:01:00 PM 42.9061 -128.4077 317° Northwest 476 548 30,000  Level FlightAware Transoceanic
Wed 06:02:00 PM 43.0064 -128.5366 317° Northwest 476 548 30,000  Level FlightAware Transoceanic
Wed 06:03:00 PM 43.1012 -128.6558 317° Northwest 469 540 30,000  Level FlightAware Transoceanic
Wed 06:04:00 PM 43.1871 -128.7641 316° Northwest 472 543 30,000  Level FlightAware Transoceanic
Wed 06:05:00 PM 43.2790 -128.8844 316° Northwest 472 543 30,000  Level FlightAware Transoceanic
Wed 06:06:00 PM 43.3707 -129.0050 316° Northwest 472 543 30,000  Level FlightAware Transoceanic
Wed 06:07:00 PM 43.4623 -129.1260 316° Northwest 472 543 30,000  Level FlightAware Transoceanic
Wed 06:08:00 PM 43.5538 -129.2473 316° Northwest 472 543 30,000  Level FlightAware Transoceanic
Wed 06:09:00 PM 43.6452 -129.3691 316° Northwest 472 543 30,000  Level FlightAware Transoceanic
Wed 06:10:00 PM 43.7364 -129.4912 316° Northwest 472 543 30,000  Level FlightAware Transoceanic
Wed 06:11:00 PM 43.8275 -129.6136 316° Northwest 472 543 30,000  Level FlightAware Transoceanic
Wed 06:12:00 PM 43.9185 -129.7365 316° Northwest 472 543 30,000  Level FlightAware Transoceanic
Wed 06:13:00 PM 44.0093 -129.8597 316° Northwest 472 543 30,000  Level FlightAware Transoceanic
Wed 06:13:19 PM 43.9333 -129.7667 317° Northwest 483 556 30,000  Level Oakland Oceanic (ODAPS)
Wed 06:14:00 PM 44.1000 -129.9833 322° Northwest 472 543 30,000  Level FlightAware Transoceanic
Wed 06:14:27 PM 44.1000 -129.9833 322° Northwest 479 551 30,000  Level Oakland Oceanic (ODAPS)
Wed 06:15:00 PM 44.2130 -130.1087 321° Northwest 472 543 30,000  Level FlightAware Transoceanic
Wed 06:16:00 PM 44.3258 -130.2346 321° Northwest 472 543 30,000  Level FlightAware Transoceanic
Wed 06:17:00 PM 44.4385 -130.3609 321° Northwest 472 543 30,000  Level FlightAware Transoceanic
Wed 06:18:00 PM 44.5511 -130.4877 321° Northwest 472 543 30,000  Level FlightAware Transoceanic
Wed 06:19:00 PM 44.6636 -130.6151 321° Northwest 483 556 30,000  Level FlightAware Transoceanic
Wed 06:20:00 PM 44.7758 -130.7429 321° Northwest 479 551 30,000  Level FlightAware Transoceanic
Wed 06:21:00 PM 44.8880 -130.8712 321° Northwest 479 551 30,000  Level FlightAware Transoceanic
Wed 06:22:00 PM 45.0000 -131.0000 323° Northwest 479 551 30,000  Level FlightAware Transoceanic
Wed 06:22:39 PM 45.0000 -131.0000 323° Northwest 477 549 30,000  Level Oakland Oceanic (ODAPS)
Wed 06:23:00 PM 45.1072 -131.1139 323° Northwest 479 551 30,000  Level FlightAware Transoceanic
Wed 06:24:00 PM 45.2142 -131.2282 323° Northwest 479 551 30,000  Level FlightAware Transoceanic
Wed 06:25:00 PM 45.3212 -131.3429 323° Northwest 479 551 30,000  Level FlightAware Transoceanic
Wed 06:26:00 PM 45.4280 -131.4581 323° Northwest 479 551 30,000  Level FlightAware Transoceanic
Wed 06:26:06 PM 45.3667 -131.4000 323° Northwest 479 551 30,000  Level Oakland Oceanic (ODAPS)
Wed 06:27:00 PM 45.5347 -131.5737 323° Northwest 479 551 30,000  Level FlightAware Transoceanic
Wed 06:28:00 PM 45.6413 -131.6897 323° Northwest 479 551 30,000  Level FlightAware Transoceanic
Wed 06:29:00 PM 45.7326 -131.7895 323° Northwest 477 549 30,000  Level FlightAware Transoceanic
Wed 06:30:00 PM 45.8368 -131.9040 323° Northwest 477 549 30,000  Level FlightAware Transoceanic
Wed 06:31:00 PM 45.9409 -132.0189 322° Northwest 477 549 30,000  Level FlightAware Transoceanic
Wed 06:32:00 PM 45.9995 -132.0910 322° Northwest 479 551 30,000  Level FlightAware Transoceanic
Wed 06:33:00 PM 46.1046 -132.2078 322° Northwest 479 551 30,000  Level FlightAware Transoceanic
Wed 06:34:00 PM 46.2095 -132.3249 322° Northwest 479 551 30,000  Level FlightAware Transoceanic
Wed 06:35:00 PM 46.3144 -132.4425 322° Northwest 479 551 30,000  Level FlightAware Transoceanic
Wed 06:36:00 PM 46.4191 -132.5606 322° Northwest 479 551 30,000  Level FlightAware Transoceanic
Wed 06:37:00 PM 46.5237 -132.6791 322° Northwest 479 551 30,000  Level FlightAware Transoceanic
Wed 06:38:00 PM 46.6281 -132.7980 322° Northwest 479 551 30,000  Level FlightAware Transoceanic
Wed 06:39:00 PM 46.7325 -132.9175 322° Northwest 479 551 30,000  Level FlightAware Transoceanic
Wed 06:39:58 PM 46.8167 -133.0000 322° Northwest 480 552 30,000  Level Oakland Oceanic (ODAPS)
Wed 06:40:00 PM 46.8367 -133.0374 322° Northwest 479 551 30,000  Level FlightAware Transoceanic
Wed 06:41:00 PM 46.9408 -133.1577 322° Northwest 479 551 30,000  Level FlightAware Transoceanic
Wed 06:42:00 PM 47.0447 -133.2785 322° Northwest 479 551 30,000  Level FlightAware Transoceanic
Wed 06:43:00 PM 47.1486 -133.3998 321° Northwest 479 551 30,000  Level FlightAware Transoceanic
Wed 06:44:00 PM 47.2523 -133.5216 321° Northwest 479 551 30,000  Level FlightAware Transoceanic
Wed 06:45:00 PM 47.3559 -133.6438 321° Northwest 479 551 30,000  Level FlightAware Transoceanic
Wed 06:46:00 PM 47.4434 -133.7359 321° Northwest 480 552 30,000  Level FlightAware Transoceanic
Wed 06:47:00 PM 47.5473 -133.8602 321° Northwest 480 552 30,000  Level FlightAware Transoceanic
Wed 06:48:00 PM 47.6512 -133.9850 321° Northwest 480 552 30,000  Level FlightAware Transoceanic
Wed 06:49:00 PM 47.7549 -134.1104 321° Northwest 480 552 30,000  Level FlightAware Transoceanic
Wed 06:50:00 PM 47.8585 -134.2362 321° Northwest 480 552 30,000  Level FlightAware Transoceanic
Wed 06:51:00 PM 47.9619 -134.3625 321° Northwest 480 552 30,000  Level FlightAware Transoceanic
Wed 06:52:00 PM 48.0652 -134.4894 321° Northwest 480 552 30,000  Level FlightAware Transoceanic
Wed 06:53:00 PM 48.1684 -134.6167 320° Northwest 480 552 30,000  Level FlightAware Transoceanic
Wed 06:53:50 PM 48.2167 -134.6833 320° Northwest 476 548 30,000  Level Oakland Oceanic (ODAPS)
Wed 06:54:00 PM 48.2714 -134.7446 320° Northwest 480 552 30,000  Level FlightAware Transoceanic
Wed 06:55:00 PM 48.3743 -134.8730 320° Northwest 480 552 30,000  Level FlightAware Transoceanic
Wed 06:56:00 PM 48.4770 -135.0019 320° Northwest 480 552 30,000  Level FlightAware Transoceanic
Wed 06:57:00 PM 48.5796 -135.1313 320° Northwest 480 552 30,000  Level FlightAware Transoceanic
Wed 06:58:00 PM 48.6820 -135.2612 320° Northwest 480 552 30,000  Level FlightAware Transoceanic
Wed 06:59:00 PM 48.7843 -135.3917 320° Northwest 480 552 30,000  Level FlightAware Transoceanic
Wed 07:00:00 PM 48.8513 -135.4821 320° Northwest 476 548 30,000  Level FlightAware Transoceanic
Wed 07:01:00 PM 48.9566 -135.6172 320° Northwest 476 548 30,000  Level FlightAware Transoceanic
Wed 07:02:00 PM 49.0616 -135.7528 320° Northwest 476 548 30,000  Level FlightAware Transoceanic
Wed 07:03:00 PM 49.1666 -135.8890 320° Northwest 476 548 30,000  Level FlightAware Transoceanic
Wed 07:04:00 PM 49.2713 -136.0258 319° Northwest 476 548 30,000  Level FlightAware Transoceanic
Wed 07:05:00 PM 49.3759 -136.1632 319° Northwest 476 548 30,000  Level FlightAware Transoceanic
Wed 07:06:00 PM 49.4804 -136.3012 319° Northwest 476 548 30,000  Level FlightAware Transoceanic
Wed 07:07:00 PM 49.5846 -136.4398 319° Northwest 476 548 30,000  Level FlightAware Transoceanic
Wed 07:07:42 PM 49.6167 -136.4833 319° Northwest 479 551 30,000  Level Oakland Oceanic (ODAPS)
Wed 07:08:00 PM 49.6887 -136.5789 319° Northwest 476 548 30,000  Level FlightAware Transoceanic
Wed 07:09:00 PM 49.7926 -136.7187 319° Northwest 476 548 30,000  Level FlightAware Transoceanic
Wed 07:10:00 PM 49.8964 -136.8590 319° Northwest 476 548 30,000  Level FlightAware Transoceanic
Wed 07:11:00 PM 50.0000 -137.0000 331° Northwest 476 548 30,000  Level FlightAware Transoceanic
Wed 07:11:28 PM 50.0000 -137.0000 331° Northwest 487 560 30,000  Level Oakland Oceanic (ODAPS)
Wed 07:12:00 PM 50.1213 -137.1066 331° Northwest 476 548 30,000  Level FlightAware Transoceanic
Wed 07:13:00 PM 50.2426 -137.2136 330° Northwest 479 551 30,000  Level FlightAware Transoceanic
Wed 07:14:00 PM 50.3637 -137.3213 330° Northwest 479 551 30,000  Level FlightAware Transoceanic
Wed 07:15:00 PM 50.4848 -137.4295 330° Northwest 479 551 30,000  Level FlightAware Transoceanic
Wed 07:16:00 PM 50.6057 -137.5382 330° Northwest 479 551 30,000  Level FlightAware Transoceanic
Wed 07:17:00 PM 50.6936 -137.6176 330° Northwest 487 560 30,000  Level FlightAware Transoceanic
Wed 07:18:00 PM 50.8089 -137.7224 330° Northwest 487 560 30,000  Level FlightAware Transoceanic
Wed 07:19:00 PM 50.9241 -137.8276 330° Northwest 487 560 30,000  Level FlightAware Transoceanic
Wed 07:20:00 PM 51.0392 -137.9333 330° Northwest 487 560 30,000  Level FlightAware Transoceanic
Wed 07:21:00 PM 51.1541 -138.0396 330° Northwest 487 560 30,000  Level FlightAware Transoceanic
Wed 07:21:35 PM 51.2000 -138.0833 330° Northwest 491 565 30,000  Level Oakland Oceanic (ODAPS)
Wed 07:22:00 PM 51.2691 -138.1464 330° Northwest 487 560 30,000  Level FlightAware Transoceanic
Wed 07:23:00 PM 51.3838 -138.2538 330° Northwest 487 560 30,000  Level FlightAware Transoceanic
Wed 07:24:00 PM 51.4986 -138.3616 330° Northwest 487 560 30,000  Level FlightAware Transoceanic
Wed 07:25:00 PM 51.6132 -138.4701 329° Northwest 487 560 30,000  Level FlightAware Transoceanic
Wed 07:26:00 PM 51.7276 -138.5791 329° Northwest 487 560 30,000  Level FlightAware Transoceanic
Wed 07:27:00 PM 51.9001 -138.7455 329° Northwest 491 565 30,000  Level FlightAware Transoceanic
Wed 07:28:00 PM 52.0165 -138.8578 329° Northwest 491 565 30,000  Level FlightAware Transoceanic
Wed 07:29:00 PM 52.1327 -138.9707 329° Northwest 491 565 30,000  Level FlightAware Transoceanic
Wed 07:30:00 PM 52.2488 -139.0843 329° Northwest 491 565 30,000  Level FlightAware Transoceanic
Wed 07:31:00 PM 52.3648 -139.1984 329° Northwest 491 565 30,000  Level FlightAware Transoceanic
Wed 07:32:00 PM 52.4807 -139.3131 329° Northwest 491 565 30,000  Level FlightAware Transoceanic
Wed 07:33:00 PM 52.5965 -139.4285 329° Northwest 491 565 30,000  Level FlightAware Transoceanic
Wed 07:34:00 PM 52.7121 -139.5444 329° Northwest 491 565 30,000  Level FlightAware Transoceanic
Wed 07:35:00 PM 52.8277 -139.6610 329° Northwest 491 565 30,000  Level FlightAware Transoceanic
Wed 07:35:26 PM 52.8167 -139.6500 329° Northwest 496 571 30,000  Level Oakland Oceanic (ODAPS)
Wed 07:36:00 PM 52.9431 -139.7782 328° Northwest 491 565 30,000  Level FlightAware Transoceanic
Wed 07:37:00 PM 53.0584 -139.8960 328° Northwest 491 565 30,000  Level FlightAware Transoceanic
Wed 07:38:00 PM 53.1736 -140.0144 328° Northwest 491 565 30,000  Level FlightAware Transoceanic
Wed 07:39:00 PM 53.2887 -140.1335 328° Northwest 491 565 30,000  Level FlightAware Transoceanic
Wed 07:40:00 PM 53.4037 -140.2532 328° Northwest 491 565 30,000  Level FlightAware Transoceanic
Wed 07:41:00 PM 53.5110 -140.3658 328° Northwest 496 571 30,000  Level FlightAware Transoceanic
Wed 07:42:00 PM 53.6263 -140.4874 328° Northwest 496 571 30,000  Level FlightAware Transoceanic
Wed 07:43:00 PM 53.7415 -140.6096 328° Northwest 496 571 30,000  Level FlightAware Transoceanic
Wed 07:44:00 PM 53.8566 -140.7326 328° Northwest 496 571 30,000  Level FlightAware Transoceanic
Wed 07:45:00 PM 53.9715 -140.8562 328° Northwest 496 571 30,000  Level FlightAware Transoceanic
Wed 07:46:00 PM 54.0863 -140.9804 327° Northwest 496 571 30,000  Level FlightAware Transoceanic
Wed 07:47:00 PM 54.2010 -141.1054 327° Northwest 496 571 30,000  Level FlightAware Transoceanic
Wed 07:48:00 PM 54.3155 -141.2311 327° Northwest 496 571 30,000  Level FlightAware Transoceanic
Wed 07:49:00 PM 54.4300 -141.3574 327° Northwest 496 571 30,000  Level FlightAware Transoceanic
Wed 07:49:18 PM 54.4333 -141.3667 327° Northwest 499 574 30,000  Level Oakland Oceanic (ODAPS)
Wed 07:50:00 PM 54.5442 -141.4845 327° Northwest 496 571 30,000  Level FlightAware Transoceanic
Wed 07:51:00 PM 54.6584 -141.6123 327° Northwest 496 571 30,000  Level FlightAware Transoceanic
Wed 07:52:00 PM 54.7724 -141.7408 327° Northwest 496 571 30,000  Level FlightAware Transoceanic
Wed 07:53:00 PM 54.8863 -141.8700 327° Northwest 496 571 30,000  Level FlightAware Transoceanic
Wed 07:54:00 PM 55.0000 -142.0000 318° Northwest 496 571 30,000  Level FlightAware Transoceanic
Wed 07:55:00 PM 55.1012 -142.1620 317° Northwest 499 574 30,000  Level FlightAware Transoceanic
Wed 07:56:00 PM 55.2022 -142.3249 317° Northwest 499 574 30,000  Level FlightAware Transoceanic
Wed 07:57:00 PM 55.3030 -142.4886 317° Northwest 499 574 30,000  Level FlightAware Transoceanic
Wed 07:58:00 PM 55.4036 -142.6531 317° Northwest 499 574 30,000  Level FlightAware Transoceanic
Wed 07:59:00 PM 55.5039 -142.8185 317° Northwest 499 574 30,000  Level FlightAware Transoceanic
Wed 08:00:00 PM 55.6041 -142.9847 317° Northwest 499 574 30,000  Level FlightAware Transoceanic
Wed 08:01:00 PM 55.7040 -143.1518 317° Northwest 499 574 30,000  Level FlightAware Transoceanic
Wed 08:02:00 PM 55.8036 -143.3197 316° Northwest 499 574 30,000  Level FlightAware Transoceanic
Wed 08:03:00 PM 55.9031 -143.4884 316° Northwest 499 574 30,000  Level FlightAware Transoceanic
Wed 08:04:00 PM 56.0023 -143.6581 316° Northwest 499 574 30,000  Level FlightAware Transoceanic
Wed 08:05:00 PM 56.1013 -143.8286 316° Northwest 499 574 30,000  Level FlightAware Transoceanic
Wed 08:05:39 PM 56.1333 -143.9000 313° West 490 564 30,000  Level Anchorage Center
Wed 08:06:00 PM 56.1829 -143.9991 311° West  Level FlightAware Approximate
Wed 08:06:39 PM 56.2333 -144.0667 317° Northwest 480 552 30,000  Level Anchorage Center
Wed 08:07:00 PM 56.2643 -144.1702 311° West  Level FlightAware Approximate
Wed 08:07:49 PM 56.3333 -144.2833 310° West 490 564 30,000  Level Anchorage Center
Wed 08:08:00 PM 56.2611 -144.1466 314° West  Level FlightAware Approximate
Wed 08:08:49 PM 56.4333 -144.4667 315° West 490 564 30,000  Level Anchorage Center
Wed 08:09:00 PM 56.3474 -144.3103 314° West  Level FlightAware Approximate
Wed 08:09:49 PM 56.5333 -144.6333 317° Northwest 480 552 30,000  Level Anchorage Center
Wed 08:10:00 PM 56.4334 -144.4746 313° West  Level FlightAware Approximate
Wed 08:10:49 PM 56.6167 -144.8167 310° West 480 552 30,000  Level Anchorage Center
Wed 08:11:00 PM 56.5192 -144.6398 313° West  Level FlightAware Approximate
Wed 08:11:49 PM 56.7167 -145.0000 315° West 490 564 30,000  Level Anchorage Center
Wed 08:12:49 PM 56.8000 -145.1833 310° West 490 564 30,000  Level Anchorage Center
Wed 08:13:50 PM 56.9000 -145.3833 313° West 490 564 30,000  Level Anchorage Center
Wed 08:14:50 PM 57.0000 -145.5667 315° West 490 564 30,000  Level Anchorage Center
Wed 08:15:50 PM 57.0833 -145.7500 310° West 490 564 30,000  Level Anchorage Center
Wed 08:16:50 PM 57.1667 -145.9333 310° West 480 552 30,000  Level Anchorage Center
Wed 08:17:50 PM 57.2667 -146.1167 315° West 480 552 30,000  Level Anchorage Center
Wed 08:19:00 PM 57.3722 -146.3355 312° West  Level FlightAware Approximate
Wed 08:19:50 PM 57.4500 -146.5000 312° West 480 552 30,000  Level Anchorage Center
Wed 08:20:50 PM 57.5333 -146.6833 310° West 470 541 30,000  Level Anchorage Center
Wed 08:21:50 PM 57.6167 -146.8667 310° West 460 529 30,000  Level Anchorage Center
Wed 08:22:50 PM 57.6833 -147.0167 310° West 470 541 30,000  Level Anchorage Center
Wed 08:24:00 PM 57.7876 -147.2395 311° West  Level FlightAware Approximate
Wed 08:24:51 PM 57.8667 -147.3833 311° West 470 541 30,000  Level Anchorage Center
Wed 08:25:51 PM 57.9500 -147.5833 308° West 470 541 30,000  Level Anchorage Center
Wed 08:26:51 PM 58.0333 -147.7667 311° West 470 541 30,000  Level Anchorage Center
Wed 08:27:51 PM 58.1167 -147.9667 308° West 470 541 30,000  Level Anchorage Center
Wed 08:28:51 PM 58.2000 -148.1500 311° West 470 541 30,000  Level Anchorage Center
Wed 08:30:00 PM 58.3010 -148.3757 310° West  Level FlightAware Approximate
Wed 08:30:51 PM 58.3667 -148.5333 310° West 460 529 30,000  Level Anchorage Center
Wed 08:31:51 PM 58.4500 -148.7333 309° West 460 529 30,000  Level Anchorage Center
Wed 08:32:51 PM 58.5333 -148.9167 311° West 460 529 30,000  Level Anchorage Center
Wed 08:33:52 PM 58.6167 -149.1167 309° West 460 529 30,000  Level Anchorage Center
Wed 08:34:52 PM 58.7000 -149.3167 309° West 460 529 30,000  Level Anchorage Center
Wed 08:35:52 PM 58.7833 -149.5000 311° West 460 529 30,000  Level Anchorage Center
Wed 08:36:52 PM 58.8667 -149.7000 309° West 460 529 30,000  Level Anchorage Center
Wed 08:42:22 PM 59.3650 -150.7510 309° West 468 539 30,000  Level FlightAware ADS-B
Wed 08:43:32 PM 59.4690 -150.9690 313° West 460 529 30,000  Level FlightAware ADS-B
Wed 08:44:47 PM 59.5780 -151.1990 313° West 459 528 30,000  Level FlightAware ADS-B
Wed 08:46:02 PM 59.6880 -151.4360 313° West 459 528 30,000  Level FlightAware ADS-B
Wed 08:48:27 PM 59.8970 -151.8910 313° West 459 528 30,000  Level FlightAware ADS-B
Wed 08:49:37 PM 59.9980 -152.1130 312° West 462 532 30,000  Level FlightAware ADS-B
Wed 08:52:02 PM 60.2020 -152.5720 312° West 459 528 30,000  Level FlightAware ADS-B
Wed 08:53:17 PM 60.3080 -152.8120 312° West 451 519 30,000  Level FlightAware ADS-B
Wed 08:54:27 PM 60.4050 -153.0350 311° West 449 517 30,000  Level FlightAware ADS-B
Wed 08:55:42 PM 60.5050 -153.2680 311° West 447 514 30,000  Level FlightAware ADS-B
Wed 08:56:17 PM 60.5520 -153.3800 311° West 447 514 30,000  Level FlightAware ADS-B
Wed 08:57:07 PM 60.6170 -153.5320 311° West 445 512 30,000  Level FlightAware ADS-B
Wed 08:57:47 PM 60.6780 -153.6750 311° West 448 516 30,000  Level FlightAware ADS-B
Wed 08:58:27 PM 60.7280 -153.7960 310° West 448 516 30,000  Level FlightAware ADS-B
Wed 08:59:02 PM 60.7770 -153.9140 310° West 447 514 30,000 282 Level FlightAware ADS-B
Wed 08:59:52 PM 60.8450 -154.0780 310° West 450 518 30,400 776 Climbing FlightAware ADS-B
Wed 09:00:27 PM 60.8920 -154.1910 311° West 450 518 31,100 525 Climbing FlightAware ADS-B
Wed 09:01:12 PM 60.9460 -154.3240 310° West 450 518 31,100 568 Level FlightAware ADS-B
Wed 09:02:02 PM 61.0170 -154.4960 310° West 450 518 32,000 600 Climbing FlightAware ADS-B
Wed 09:02:42 PM 61.0620 -154.6080 310° West 450 518 32,000  Level FlightAware ADS-B
Wed 09:03:22 PM 61.1080 -154.7200 310° West 450 518 32,000  Level FlightAware ADS-B
Wed 09:04:02 PM 61.1530 -154.8320 310° West 450 518 32,000  Level FlightAware ADS-B
Wed 09:04:42 PM 61.1990 -154.9450 310° West 450 518 32,000  Level FlightAware ADS-B
Wed 09:05:32 PM 61.2550 -155.0860 310° West 450 518 32,000  Level FlightAware ADS-B
Wed 09:06:12 PM 61.3010 -155.1990 310° West 450 518 32,000  Level FlightAware ADS-B
Wed 09:06:52 PM 61.3460 -155.3120 310° West 450 518 32,000  Level FlightAware ADS-B
Wed 09:07:32 PM 61.3920 -155.4250 310° West 450 518 32,000  Level FlightAware ADS-B
Wed 09:08:12 PM 61.4370 -155.5380 310° West 450 518 32,000  Level FlightAware ADS-B
Wed 09:08:52 PM 61.4830 -155.6520 310° West 450 518 32,000  Level FlightAware ADS-B
Wed 09:09:42 PM 61.5400 -155.7940 310° West 450 518 32,000  Level FlightAware ADS-B
Wed 09:10:22 PM 61.5850 -155.9080 310° West 450 518 32,000  Level FlightAware ADS-B
Wed 09:11:02 PM 61.6310 -156.0220 310° West 450 518 32,000  Level FlightAware ADS-B
Wed 09:11:55 PM 61.6667 -156.6000 310° West 450 518 32,000  Level Anchorage Center
Wed 09:12:55 PM 61.7167 -156.8333 294° West 450 518 32,000  Level Anchorage Center
Wed 09:13:55 PM 61.7667 -157.0833 293° West 460 529 32,000  Level Anchorage Center
Wed 09:14:56 PM 61.8167 -157.3333 293° West 450 518 32,000  Level Anchorage Center
Wed 09:15:56 PM 61.8667 -157.6000 292° West 460 529 32,000  Level Anchorage Center
Wed 09:16:56 PM 61.9000 -157.8500 286° West 450 518 32,000  Level Anchorage Center
Wed 09:17:56 PM 61.9500 -158.1000 293° West 460 529 32,000  Level Anchorage Center
Wed 09:18:56 PM 62.0000 -158.3667 292° West 450 518 32,000  Level Anchorage Center
Wed 09:19:56 PM 62.0500 -158.6167 293° West 460 529 32,000  Level Anchorage Center
Wed 09:20:56 PM 62.0833 -158.8833 285° West 460 529 32,000  Level Anchorage Center
Wed 09:21:56 PM 62.1333 -159.1500 292° West 470 541 32,000  Level Anchorage Center
Wed 09:22:56 PM 62.1667 -159.4167 285° West 470 541 32,000  Level Anchorage Center
Wed 09:23:56 PM 62.2167 -159.6833 292° West 470 541 32,000  Level Anchorage Center
Wed 09:24:57 PM 62.2500 -159.9500 285° West 460 529 32,000  Level Anchorage Center
Wed 09:25:57 PM 62.3000 -160.2000 293° West 460 529 32,000  Level Anchorage Center
Wed 09:26:57 PM 62.3333 -160.4833 284° West 470 541 32,000  Level Anchorage Center
Wed 09:27:57 PM 62.3833 -160.7500 292° West 470 541 32,000  Level Anchorage Center
Wed 09:28:57 PM 62.4333 -161.0167 292° West 470 541 32,000  Level Anchorage Center
Wed 09:29:57 PM 62.4667 -161.3000 284° West 480 552 32,000  Level Anchorage Center
Wed 09:30:57 PM 62.5000 -161.6000 284° West 480 552 32,000  Level Anchorage Center
Wed 09:31:57 PM 62.5500 -161.8667 292° West 470 541 32,000  Level Anchorage Center
Wed 09:32:57 PM 62.5833 -162.1500 284° West 470 541 32,000  Level Anchorage Center
Wed 09:33:58 PM 62.6333 -162.4167 292° West 470 541 32,000  Level Anchorage Center
Wed 09:34:58 PM 62.6667 -162.7000 284° West 470 541 32,000  Level Anchorage Center
Wed 09:35:57 PM 62.7000 -162.9833 285° West 480 552 32,000  Level Anchorage Center
Wed 09:36:58 PM 62.7333 -163.2500 285° West 470 541 32,000  Level Anchorage Center
Wed 09:37:58 PM 62.7833 -163.5333 291° West 480 552 32,000  Level Anchorage Center
Wed 09:38:58 PM 62.8167 -163.8167 285° West 480 552 32,000  Level Anchorage Center
Wed 09:39:58 PM 62.8333 -164.0333 280° West 470 541 32,000  Level Anchorage Center
Wed 09:40:58 PM 62.8833 -164.3833 288° West 480 552 32,000  Level Anchorage Center
Wed 09:41:58 PM 62.9167 -164.6667 285° West 470 541 32,000  Level Anchorage Center
Wed 09:42:58 PM 62.9500 -164.9500 285° West 480 552 32,000  Level Anchorage Center
Wed 09:43:58 PM 62.9833 -165.2333 285° West 480 552 32,000  Level Anchorage Center
Wed 09:44:59 PM 63.0167 -165.5167 285° West 480 552 32,000  Level Anchorage Center
Wed 09:45:58 PM 63.0500 -165.8000 285° West 480 552 32,000  Level Anchorage Center
Wed 09:46:59 PM 63.0833 -166.0833 285° West 480 552 32,000  Level Anchorage Center
Wed 09:47:59 PM 63.1000 -166.3833 277° West 480 552 32,000  Level Anchorage Center
Wed 09:48:59 PM 63.1333 -166.6667 285° West 480 552 32,000  Level Anchorage Center
Wed 09:49:59 PM 63.1667 -166.9500 285° West 480 552 32,000  Level Anchorage Center
Wed 09:50:59 PM 63.2000 -167.2500 284° West 480 552 32,000  Level Anchorage Center
Wed 09:51:59 PM 63.2167 -167.5333 278° West 480 552 32,000  Level Anchorage Center
Wed 09:52:59 PM 63.2500 -167.8333 284° West 480 552 32,000  Level Anchorage Center
Wed 09:54:00 PM 63.2833 -168.1167 285° West 480 552 32,000  Level Anchorage Center
Wed 09:55:00 PM 63.3000 -168.4000 278° West 470 541 32,000  Level Anchorage Center
Wed 09:56:00 PM 63.3333 -168.7000 284° West 490 564 32,000  Level Anchorage Center
Wed 09:57:00 PM 63.3667 -169.0000 284° West 480 552 32,000  Level Anchorage Center
Wed 09:58:00 PM 63.3833 -169.3000 277° West 490 564 32,000  Level Anchorage Center
Wed 09:59:00 PM 63.4000 -169.6000 277° West 490 564 32,000  Level Anchorage Center
Wed 10:00:00 PM 63.4333 -169.8833 285° West 480 552 32,000  Level Anchorage Center
Wed 10:01:00 PM 63.4500 -170.1667 278° West 480 552 32,000  Level Anchorage Center
Wed 10:02:00 PM 63.4667 -170.4667 277° West 470 541 32,000  Level Anchorage Center
Wed 10:03:00 PM 63.5000 -170.7500 285° West 470 541 32,000  Level Anchorage Center
Wed 10:04:00 PM 63.5167 -171.0500 277° West 480 552 32,000  Level Anchorage Center
Wed 10:05:01 PM 63.5333 -171.3500 277° West 470 541 32,000  Level Anchorage Center
Wed 10:06:00 PM 63.5667 -171.6500 284° West 480 552 32,000  Level Anchorage Center
Wed 10:07:01 PM 63.5833 -171.9333 278° West 470 541 32,000  Level Anchorage Center
Wed 10:08:01 PM 63.6000 -172.2333 277° West 480 552 32,000  Level Anchorage Center
Wed 10:09:01 PM 63.6167 -172.5333 277° West 470 541 32,000  Level Anchorage Center
Wed 10:10:01 PM 63.6333 -172.8167 278° West 470 541 32,000  Level Anchorage Center
Wed 10:11:01 PM 63.6500 -173.1167 277° West 480 552 32,000  Level Anchorage Center
Wed 10:16:27 PM 63.5580 -174.7680 277° West 486 559 32,000  Level FlightAware ADS-B
Wed 10:17:12 PM 63.5460 -174.9420 261° West 484 557 32,000  Level FlightAware ADS-B
Wed 10:17:57 PM 63.5320 -175.1590 262° West 481 554 32,000  Level FlightAware ADS-B
Wed 10:18:37 PM 63.5170 -175.3660 261° West 477 549 32,000  Level FlightAware ADS-B
Wed 10:19:22 PM 63.5030 -175.5670 261° West 475 547 32,000  Level FlightAware ADS-B
Wed 10:19:57 PM 63.4870 -175.7830 261° West 472 543 32,000  Level FlightAware ADS-B
Wed 10:20:47 PM 63.4700 -176.0190 261° West 470 541 32,000  Level FlightAware ADS-B
Wed 10:21:17 PM 63.4580 -176.1810 261° West 469 540 32,000  Level FlightAware ADS-B
Wed 10:22:17 PM 63.4380 -176.4410 260° West 470 541 32,000  Level FlightAware ADS-B
Wed 10:22:57 PM 63.4230 -176.6280 260° West 470 541 32,000  Level FlightAware ADS-B
Wed 10:23:47 PM 63.4030 -176.8670 260° West 471 542 32,000  Level FlightAware ADS-B
Wed 10:24:27 PM 63.3890 -177.0510 260° West 471 542 32,000  Level FlightAware ADS-B
Wed 10:25:12 PM 63.3710 -177.2580 259° West 472 543 32,000  Level FlightAware ADS-B
Wed 10:26:07 PM 63.3510 -177.4960 259° West 471 542 32,000  Level FlightAware ADS-B
Wed 10:26:42 PM 63.3330 -177.7070 259° West 470 541 32,000  Level FlightAware ADS-B
Wed 10:27:22 PM 63.3170 -177.8830 259° West 470 541 32,000  Level FlightAware ADS-B
Wed 10:28:12 PM 63.2960 -178.1200 259° West 470 541 32,000  Level FlightAware ADS-B
Wed 10:28:57 PM 63.2780 -178.3140 258° West 470 541 32,000  Level FlightAware ADS-B
Wed 10:29:37 PM 63.2560 -178.5550 259° West 469 540 32,000  Level FlightAware ADS-B
Wed 10:30:17 PM 63.2440 -178.6750 258° West 470 541 32,000  Level FlightAware ADS-B
Wed 10:30:57 PM 63.2250 -178.8740 258° West 468 539 32,000  Level FlightAware ADS-B
Wed 10:31:37 PM 63.2060 -179.0760 258° West 466 536 32,000  Level FlightAware ADS-B
Wed 10:32:22 PM 63.1840 -179.2940 257° West 465 535 32,000  Level FlightAware ADS-B
Wed 10:33:07 PM 63.1650 -179.4830 258° West 465 535 32,000  Level FlightAware ADS-B
Wed 10:33:42 PM 63.1440 -179.6870 257° West 464 534 32,000  Level FlightAware ADS-B
Wed 10:34:42 PM 63.1190 -179.9340 257° West 462 532 32,000  Level FlightAware ADS-B
Wed 10:35:42 PM 63.0880 179.7740 257° West 461 531 32,000  Level FlightAware ADS-B
Wed 10:36:17 PM 63.0680 179.6050 255° West 461 531 32,000  Level FlightAware ADS-B
Wed 10:36:57 PM 63.0530 179.4760 256° West 460 529 32,000  Level FlightAware ADS-B
Wed 10:37:42 PM 63.0330 179.2280 260° West 443 510 32,000  Level FlightAware ADS-B
Wed 10:38:37 PM 63.0330 179.0100 270° West 437 503 32,000  Level FlightAware ADS-B
Wed 10:39:32 PM 63.0330 178.7590 270° West 437 503 32,000  Level FlightAware ADS-B
Wed 10:40:37 PM 63.0320 178.4760 270° West 437 503 32,000  Level FlightAware ADS-B
Wed 10:41:12 PM 63.0300 178.2880 269° West 437 503 32,000  Level FlightAware ADS-B
Wed 10:41:57 PM 63.0290 178.1090 269° West 437 503 32,000  Level FlightAware ADS-B
Wed 10:42:42 PM 63.0270 177.9080 269° West 437 503 32,000  Level FlightAware ADS-B
Wed 10:43:17 PM 63.0260 177.7460 269° West 437 503 32,000  Level FlightAware ADS-B
Wed 10:44:07 PM 63.0240 177.5720 269° West 437 503 32,000  Level FlightAware ADS-B
Wed 10:44:42 PM 63.0210 177.3590 268° West 437 503 32,000  Level FlightAware ADS-B
Wed 10:45:27 PM 63.0190 177.1640 269° West 438 504 32,000  Level FlightAware ADS-B
Wed 10:46:12 PM 63.0160 177.0010 268° West 438 504 32,000  Level FlightAware ADS-B
Wed 10:46:47 PM 63.0130 176.8080 268° West 438 504 32,000  Level FlightAware ADS-B
Wed 10:47:27 PM 63.0100 176.6550 268° West 439 505 32,000  Level FlightAware ADS-B
Wed 10:48:17 PM 63.0070 176.4500 268° West 439 505 32,000  Level FlightAware ADS-B
Wed 10:49:02 PM 63.0020 176.2300 267° West 439 505 32,000  Level FlightAware ADS-B
Wed 10:49:42 PM 62.9980 176.0260 268° West 440 506 32,000  Level FlightAware ADS-B
Wed 10:50:47 PM 62.9910 175.7550 267° West 441 507 32,000  Level FlightAware ADS-B
Wed 10:51:32 PM 62.9870 175.5700 267° West 442 509 32,000  Level FlightAware ADS-B
Wed 10:52:12 PM 62.9810 175.3500 267° West 442 509 32,000  Level FlightAware ADS-B
Wed 10:52:52 PM 62.9770 175.2070 267° West 442 509 32,000  Level FlightAware ADS-B
Wed 10:53:42 PM 62.9700 174.9820 266° West 443 510 32,000  Level FlightAware ADS-B
Wed 10:54:17 PM 62.9650 174.7990 267° West 444 511 32,000  Level FlightAware ADS-B
Wed 10:54:57 PM 62.9600 174.6470 266° West 444 511 32,000  Level FlightAware ADS-B
Wed 10:55:42 PM 62.9520 174.4200 266° West 445 512 32,000  Level FlightAware ADS-B
Wed 10:56:17 PM 62.9470 174.2590 266° West 445 512 32,000  Level FlightAware ADS-B
Wed 10:57:12 PM 62.9400 174.0700 265° West 445 512 32,000  Level FlightAware ADS-B
Wed 10:57:47 PM 62.9330 173.8660 266° West 446 513 32,000  Level FlightAware ADS-B
Wed 10:58:32 PM 62.9250 173.6710 265° West 445 512 32,000  Level FlightAware ADS-B
Wed 10:59:17 PM 62.9170 173.4790 265° West 444 511 32,000  Level FlightAware ADS-B
Wed 10:59:57 PM 62.9090 173.2740 265° West 442 509 32,000  Level FlightAware ADS-B
Wed 11:00:42 PM 62.9010 173.0940 265° West 441 507 32,000  Level FlightAware ADS-B
Wed 11:01:17 PM 62.8930 172.9140 265° West 439 505 32,000  Level FlightAware ADS-B
Wed 11:02:07 PM 62.8850 172.7380 264° West 437 503 32,000  Level FlightAware ADS-B
Wed 11:02:47 PM 62.8760 172.5440 264° West 436 502 32,000  Level FlightAware ADS-B
Wed 11:03:27 PM 62.8670 172.3550 264° West 435 501 32,000 635 Level FlightAware ADS-B
Wed 11:04:12 PM 62.8580 172.1650 264° West 437 503 32,900 1,200 Climbing FlightAware ADS-B
Wed 11:04:52 PM 62.8490 171.9950 263° West 436 502 33,700 825 Climbing FlightAware ADS-B
Wed 11:05:32 PM 62.8390 171.7990 264° West 435 501 34,000 212 Climbing FlightAware ADS-B
Wed 11:06:17 PM 62.8300 171.6260 264° West 433 498 34,000  Level FlightAware ADS-B
Wed 11:06:52 PM 62.8200 171.4580 263° West 430 495 34,000  Level FlightAware ADS-B
Wed 11:07:37 PM 62.8100 171.2770 263° West 429 494 34,000  Level FlightAware ADS-B
Wed 11:08:17 PM 62.8000 171.1030 263° West 427 491 34,000  Level FlightAware ADS-B
Wed 11:09:07 PM 62.7890 170.9110 263° West 426 490 34,000  Level FlightAware ADS-B
Wed 11:09:37 PM 62.7790 170.7530 262° West 426 490 34,000  Level FlightAware ADS-B
Wed 11:10:22 PM 62.7700 170.5900 263° West 427 491 34,000  Level FlightAware ADS-B
Wed 11:11:07 PM 62.7580 170.4100 262° West 427 491 34,000  Level FlightAware ADS-B
Wed 11:11:52 PM 62.7470 170.2350 262° West 427 491 34,000  Level FlightAware ADS-B
Wed 11:12:32 PM 62.7370 170.0900 262° West 427 491 34,000  Level FlightAware ADS-B
Wed 11:13:12 PM 62.7280 169.9450 262° West 427 491 34,000  Level FlightAware ADS-B
Wed 11:13:52 PM 62.7190 169.8000 262° West 427 491 34,000  Level FlightAware ADS-B
Wed 11:14:42 PM 62.7070 169.6180 262° West 427 491 34,000  Level FlightAware ADS-B
Wed 11:15:22 PM 62.6980 169.4730 262° West 427 491 34,000  Level FlightAware ADS-B
Wed 11:16:02 PM 62.6880 169.3280 262° West 427 491 34,000  Level FlightAware ADS-B
Wed 11:16:42 PM 62.6790 169.1830 262° West 427 491 34,000  Level FlightAware ADS-B
Wed 11:17:22 PM 62.6700 169.0380 262° West 427 491 34,000  Level FlightAware ADS-B
Wed 11:18:12 PM 62.6580 168.8570 262° West 427 491 34,000  Level FlightAware ADS-B
Wed 11:18:52 PM 62.6480 168.7130 261° West 427 491 34,000  Level FlightAware ADS-B
Wed 11:19:32 PM 62.6390 168.5680 262° West 427 491 34,000  Level FlightAware ADS-B
Wed 11:20:12 PM 62.6300 168.4230 262° West 427 491 34,000  Level FlightAware ADS-B
Wed 11:20:52 PM 62.6200 168.2790 261° West 427 491 34,000  Level FlightAware ADS-B
Wed 11:23:00 PM 62.5665 167.6660 260° West  Level FlightAware Approximate
Wed 11:24:00 PM 62.5405 167.3795 259° West  Level FlightAware Approximate
Wed 11:25:00 PM 62.5139 167.0934 259° West  Level FlightAware Approximate
Wed 11:26:00 PM 62.4868 166.8079 258° West  Level FlightAware Approximate
Wed 11:27:00 PM 62.4590 166.5228 258° West  Level FlightAware Approximate
Wed 11:28:00 PM 62.4307 166.2384 258° West  Level FlightAware Approximate
Wed 11:29:00 PM 62.4032 165.9534 259° West  Level FlightAware Approximate
Wed 11:30:00 PM 62.3767 165.6686 259° West  Level FlightAware Approximate
Wed 11:31:00 PM 62.3495 165.3844 258° West  Level FlightAware Approximate
Wed 11:32:00 PM 62.3218 165.1006 258° West  Level FlightAware Approximate
Wed 11:33:00 PM 62.2935 164.8174 258° West  Level FlightAware Approximate
Wed 11:34:00 PM 62.2666 164.5339 259° West  Level FlightAware Approximate
Wed 11:35:00 PM 62.2400 164.2504 259° West  Level FlightAware Approximate
Wed 11:36:00 PM 62.2129 163.9675 259° West  Level FlightAware Approximate
Wed 11:37:00 PM 62.1853 163.6850 258° West  Level FlightAware Approximate
Wed 11:38:00 PM 62.1570 163.4030 258° West  Level FlightAware Approximate
Wed 11:39:00 PM 62.1282 163.1216 258° West  Level FlightAware Approximate
Wed 11:40:00 PM 62.0988 162.8408 258° West  Level FlightAware Approximate
Wed 11:41:00 PM 62.0689 162.5605 257° West  Level FlightAware Approximate
Wed 11:42:00 PM 62.0383 162.2807 257° West  Level FlightAware Approximate
Wed 11:43:00 PM 62.0072 162.0015 257° West  Level FlightAware Approximate
Wed 11:44:00 PM 61.9756 161.7229 257° West  Level FlightAware Approximate
Wed 11:45:00 PM 61.9434 161.4448 256° West  Level FlightAware Approximate
Wed 11:46:00 PM 61.9106 161.1674 256° West  Level FlightAware Approximate
Wed 11:47:00 PM 61.8773 160.8905 256° West  Level FlightAware Approximate
Wed 11:48:00 PM 61.8434 160.6143 256° West  Level FlightAware Approximate
Wed 11:49:00 PM 61.7895 160.3546 243° Southwest  Level FlightAware Approximate
Wed 11:50:00 PM 61.7270 160.1026 242° Southwest  Level FlightAware Approximate
Wed 11:51:00 PM 61.6641 159.8516 242° Southwest  Level FlightAware Approximate
Wed 11:52:00 PM 61.6008 159.6016 242° Southwest  Level FlightAware Approximate
Wed 11:53:00 PM 61.5369 159.3527 242° Southwest  Level FlightAware Approximate
Wed 11:54:00 PM 61.4727 159.1048 242° Southwest  Level FlightAware Approximate
Wed 11:55:00 PM 61.4080 158.8578 241° Southwest  Level FlightAware Approximate
Wed 11:56:00 PM 61.3428 158.6120 241° Southwest  Level FlightAware Approximate
Wed 11:57:00 PM 61.2772 158.3671 241° Southwest  Level FlightAware Approximate
Wed 11:58:00 PM 61.2112 158.1233 241° Southwest  Level FlightAware Approximate
Wed 11:59:00 PM 61.1447 157.8805 241° Southwest  Level FlightAware Approximate
Thu 12:00:00 AM 61.0778 157.6387 240° Southwest  Level FlightAware Approximate
Thu 12:01:00 AM 61.0104 157.3979 240° Southwest  Level FlightAware Approximate
Thu 12:02:00 AM 60.9427 157.1582 240° Southwest  Level FlightAware Approximate
Thu 12:03:00 AM 60.8745 156.9195 240° Southwest  Level FlightAware Approximate
Thu 12:04:00 AM 60.8059 156.6818 239° Southwest  Level FlightAware Approximate
Thu 12:05:00 AM 60.7368 156.4451 239° Southwest  Level FlightAware Approximate
Thu 12:06:00 AM 60.6674 156.2094 239° Southwest  Level FlightAware Approximate
Thu 12:07:00 AM 60.5975 155.9748 239° Southwest  Level FlightAware Approximate
Thu 12:08:00 AM 60.5272 155.7412 239° Southwest  Level FlightAware Approximate
Thu 12:09:00 AM 60.4566 155.5086 238° Southwest  Level FlightAware Approximate
Thu 12:10:00 AM 60.3855 155.2770 238° Southwest  Level FlightAware Approximate
Thu 12:11:00 AM 60.3140 155.0464 238° Southwest  Level FlightAware Approximate
Thu 12:12:00 AM 60.2421 154.8168 238° Southwest  Level FlightAware Approximate
Thu 12:13:00 AM 60.1698 154.5883 237° Southwest  Level FlightAware Approximate
Thu 12:14:00 AM 60.0971 154.3608 237° Southwest  Level FlightAware Approximate
Thu 12:15:00 AM 60.0239 154.1344 237° Southwest  Level FlightAware Approximate
Thu 12:16:00 AM 59.9504 153.9089 237° Southwest  Level FlightAware Approximate
Thu 12:17:00 AM 59.8765 153.6845 237° Southwest  Level FlightAware Approximate
Thu 12:18:00 AM 59.8022 153.4610 237° Southwest  Level FlightAware Approximate
Thu 12:19:00 AM 59.7276 153.2386 236° Southwest  Level FlightAware Approximate
Thu 12:20:00 AM 59.6526 153.0171 236° Southwest  Level FlightAware Approximate
Thu 12:21:00 AM 59.5772 152.7967 236° Southwest  Level FlightAware Approximate
Thu 12:22:00 AM 59.5014 152.5772 236° Southwest  Level FlightAware Approximate
Thu 12:23:00 AM 59.4253 152.3587 236° Southwest  Level FlightAware Approximate
Thu 12:24:00 AM 59.3488 152.1412 235° Southwest  Level FlightAware Approximate
Thu 12:25:00 AM 59.2719 151.9246 235° Southwest  Level FlightAware Approximate
Thu 12:26:00 AM 59.1947 151.7091 235° Southwest  Level FlightAware Approximate
Thu 12:27:00 AM 59.1171 151.4945 235° Southwest  Level FlightAware Approximate
Thu 12:28:00 AM 59.0392 151.2809 235° Southwest  Level FlightAware Approximate
Thu 12:29:00 AM 58.9609 151.0683 235° Southwest  Level FlightAware Approximate
Thu 12:30:00 AM 58.8823 150.8566 234° Southwest  Level FlightAware Approximate
Thu 12:31:00 AM 58.8033 150.6459 234° Southwest  Level FlightAware Approximate
Thu 12:32:00 AM 58.7240 150.4361 234° Southwest  Level FlightAware Approximate
Thu 12:33:00 AM 58.6443 150.2273 234° Southwest  Level FlightAware Approximate
Thu 12:34:00 AM 58.5643 150.0195 234° Southwest  Level FlightAware Approximate
Thu 12:35:00 AM 58.4840 149.8126 233° Southwest  Level FlightAware Approximate
Thu 12:36:00 AM 58.4034 149.6066 233° Southwest  Level FlightAware Approximate
Thu 12:37:00 AM 58.3224 149.4016 233° Southwest  Level FlightAware Approximate
Thu 12:38:00 AM 58.2411 149.1975 233° Southwest  Level FlightAware Approximate
Thu 12:39:00 AM 58.1595 148.9944 233° Southwest  Level FlightAware Approximate
Thu 12:40:00 AM 58.0775 148.7922 233° Southwest  Level FlightAware Approximate
Thu 12:41:00 AM 57.9952 148.5909 232° Southwest  Level FlightAware Approximate
Thu 12:42:00 AM 57.9126 148.3906 232° Southwest  Level FlightAware Approximate
Thu 12:43:00 AM 57.8297 148.1911 232° Southwest  Level FlightAware Approximate
Thu 12:44:00 AM 57.7465 147.9926 232° Southwest  Level FlightAware Approximate
Thu 12:45:00 AM 57.6630 147.7950 232° Southwest  Level FlightAware Approximate
Thu 12:46:00 AM 57.5792 147.5983 232° Southwest  Level FlightAware Approximate
Thu 12:47:00 AM 57.4950 147.4026 231° Southwest  Level FlightAware Approximate
Thu 12:48:00 AM 57.4106 147.2077 231° Southwest  Level FlightAware Approximate
Thu 12:49:00 AM 57.3259 147.0137 231° Southwest  Level FlightAware Approximate
Thu 12:50:00 AM 57.2409 146.8206 231° Southwest  Level FlightAware Approximate
Thu 12:51:00 AM 57.1555 146.6284 231° Southwest  Level FlightAware Approximate
Thu 12:52:00 AM 57.0699 146.4371 231° Southwest  Level FlightAware Approximate
Thu 12:53:00 AM 56.9840 146.2467 230° Southwest  Level FlightAware Approximate
Thu 12:54:00 AM 56.8978 146.0571 230° Southwest  Level FlightAware Approximate
Thu 12:55:00 AM 56.8113 145.8685 230° Southwest  Level FlightAware Approximate
Thu 12:56:00 AM 56.7246 145.6806 230° Southwest  Level FlightAware Approximate
Thu 12:57:00 AM 56.6375 145.4937 230° Southwest  Level FlightAware Approximate
Thu 12:58:00 AM 56.5502 145.3076 230° Southwest  Level FlightAware Approximate
Thu 12:59:00 AM 56.4626 145.1224 229° Southwest  Level FlightAware Approximate
Thu 01:00:00 AM 56.3747 144.9380 229° Southwest  Level FlightAware Approximate
Thu 01:01:00 AM 56.2866 144.7545 229° Southwest  Level FlightAware Approximate
Thu 01:02:00 AM 56.1981 144.5718 229° Southwest  Level FlightAware Approximate
Thu 01:03:00 AM 56.1095 144.3900 229° Southwest  Level FlightAware Approximate
Thu 01:04:00 AM 56.0205 144.2090 229° Southwest  Level FlightAware Approximate
Thu 01:05:00 AM 55.9313 144.0289 229° Southwest  Level FlightAware Approximate
Thu 01:06:00 AM 55.8418 143.8495 228° Southwest  Level FlightAware Approximate
Thu 01:07:00 AM 55.7521 143.6710 228° Southwest  Level FlightAware Approximate
Thu 01:08:00 AM 55.6621 143.4933 228° Southwest  Level FlightAware Approximate
Thu 01:09:00 AM 55.5718 143.3165 228° Southwest  Level FlightAware Approximate
Thu 01:10:00 AM 55.4813 143.1404 228° Southwest  Level FlightAware Approximate
Thu 01:11:00 AM 55.3906 142.9651 228° Southwest  Level FlightAware Approximate
Thu 01:12:00 AM 55.2996 142.7907 228° Southwest  Level FlightAware Approximate
Thu 01:13:00 AM 55.2083 142.6171 227° Southwest  Level FlightAware Approximate
Thu 01:14:00 AM 55.1168 142.4442 227° Southwest  Level FlightAware Approximate
Thu 01:15:00 AM 55.0251 142.2720 227° Southwest  Level FlightAware Approximate
Thu 01:16:00 AM 54.9333 142.1006 227° Southwest  Level FlightAware Approximate
Thu 01:17:00 AM 54.8412 141.9299 227° Southwest  Level FlightAware Approximate
Thu 01:18:00 AM 54.7488 141.7600 227° Southwest  Level FlightAware Approximate
Thu 01:19:00 AM 54.6562 141.5908 227° Southwest  Level FlightAware Approximate
Thu 01:20:00 AM 54.5634 141.4225 226° Southwest  Level FlightAware Approximate
Thu 01:21:00 AM 54.4704 141.2549 226° Southwest  Level FlightAware Approximate
Thu 01:22:00 AM 54.3771 141.0880 226° Southwest  Level FlightAware Approximate
Thu 01:23:00 AM 54.2836 140.9220 226° Southwest  Level FlightAware Approximate
Thu 01:24:00 AM 54.1899 140.7566 226° Southwest  Level FlightAware Approximate
Thu 01:25:00 AM 54.0959 140.5921 226° Southwest  Level FlightAware Approximate
Thu 01:26:00 AM 54.0017 140.4282 226° Southwest  Level FlightAware Approximate
Thu 01:27:00 AM 53.9073 140.2651 226° Southwest  Level FlightAware Approximate
Thu 01:28:00 AM 53.8127 140.1028 225° Southwest  Level FlightAware Approximate
Thu 01:29:00 AM 53.7179 139.9411 225° Southwest  Level FlightAware Approximate
Thu 01:30:00 AM 53.6228 139.7802 225° Southwest  Level FlightAware Approximate
Thu 01:31:00 AM 53.5275 139.6201 225° Southwest  Level FlightAware Approximate
Thu 01:32:00 AM 53.4321 139.4606 225° Southwest  Level FlightAware Approximate
Thu 01:33:00 AM 53.3364 139.3019 225° Southwest  Level FlightAware Approximate
Thu 01:34:00 AM 53.2405 139.1439 225° Southwest  Level FlightAware Approximate
Thu 01:35:00 AM 53.1443 138.9866 225° Southwest  Level FlightAware Approximate
Thu 01:36:00 AM 53.0480 138.8299 224° Southwest  Level FlightAware Approximate
Thu 01:37:00 AM 52.9515 138.6740 224° Southwest  Level FlightAware Approximate
Thu 01:38:00 AM 52.8548 138.5188 224° Southwest  Level FlightAware Approximate
Thu 01:39:00 AM 52.7579 138.3643 224° Southwest  Level FlightAware Approximate
Thu 01:40:00 AM 52.6607 138.2104 224° Southwest  Level FlightAware Approximate
Thu 01:41:00 AM 52.5634 138.0573 224° Southwest  Level FlightAware Approximate
Thu 01:42:00 AM 52.4659 137.9048 224° Southwest  Level FlightAware Approximate
Thu 01:43:00 AM 52.3681 137.7530 224° Southwest  Level FlightAware Approximate
Thu 01:44:00 AM 52.2702 137.6019 223° Southwest  Level FlightAware Approximate
Thu 01:45:00 AM 52.1721 137.4514 223° Southwest  Level FlightAware Approximate
Thu 01:46:00 AM 52.0738 137.3016 223° Southwest  Level FlightAware Approximate
Thu 01:47:00 AM 51.9753 137.1524 223° Southwest  Level FlightAware Approximate
Thu 01:48:00 AM 51.8767 137.0040 223° Southwest  Level FlightAware Approximate
Thu 01:49:00 AM 51.7778 136.8561 223° Southwest  Level FlightAware Approximate
Thu 01:50:00 AM 51.6788 136.7089 223° Southwest  Level FlightAware Approximate
Thu 01:51:00 AM 51.5796 136.5624 223° Southwest  Level FlightAware Approximate
Thu 01:52:00 AM 51.4801 136.4165 222° Southwest  Level FlightAware Approximate
Thu 01:53:00 AM 51.3806 136.2712 222° Southwest  Level FlightAware Approximate
Thu 01:54:00 AM 51.2808 136.1265 222° Southwest  Level FlightAware Approximate
Thu 01:55:00 AM 51.1808 135.9825 222° Southwest  Level FlightAware Approximate
Thu 01:56:00 AM 51.0805 135.8396 221° Southwest  Level FlightAware Approximate
Thu 01:56:52 AM 52.3140 135.8240 221° Southwest 490 564 34,000  Level FlightAware ADS-B
Thu 01:57:00 AM 50.9789 135.6991 221° Southwest  Level FlightAware Approximate
Thu 01:57:32 AM 52.2510 135.7510 215° Southwest 490 564 34,000  Level FlightAware ADS-B
Thu 01:58:07 AM 52.1730 135.6640 214° Southwest 493 567 34,000  Level FlightAware ADS-B
Thu 01:58:57 AM 52.0860 135.5670 214° Southwest 493 567 34,000  Level FlightAware ADS-B
Thu 01:59:37 AM 51.9920 135.4590 215° Southwest 495 570 34,000  Level FlightAware ADS-B
Thu 02:00:22 AM 51.9020 135.3580 215° Southwest 496 571 34,000  Level FlightAware ADS-B
Thu 02:01:02 AM 51.8400 135.2900 214° Southwest 495 570 34,000  Level FlightAware ADS-B
Thu 02:02:02 AM 51.7600 135.2010 215° Southwest 494 568 34,000  Level FlightAware ADS-B
Thu 02:02:42 AM 51.6840 135.1160 215° Southwest 494 568 34,000  Level FlightAware ADS-B
Thu 02:03:22 AM 51.6140 135.0390 214° Southwest 493 567 34,000  Level FlightAware ADS-B
Thu 02:04:07 AM 51.5310 134.9480 214° Southwest 492 566 34,000  Level FlightAware ADS-B
Thu 02:04:47 AM 51.4590 134.8700 214° Southwest 492 566 34,000  Level FlightAware ADS-B
Thu 02:05:27 AM 51.3790 134.7830 214° Southwest 491 565 34,000  Level FlightAware ADS-B
Thu 02:06:12 AM 51.2920 134.6880 214° Southwest 492 566 34,000  Level FlightAware ADS-B
Thu 02:06:52 AM 51.2210 134.6110 214° Southwest 491 565 34,000  Level FlightAware ADS-B
Thu 02:07:37 AM 51.1270 134.5100 214° Southwest 491 565 34,000  Level FlightAware ADS-B
Thu 02:08:17 AM 51.0590 134.4380 214° Southwest 490 564 34,000  Level FlightAware ADS-B
Thu 02:08:57 AM 50.9760 134.3500 214° Southwest 488 562 34,000  Level FlightAware ADS-B
Thu 02:09:37 AM 50.9090 134.2790 214° Southwest 488 562 34,000  Level FlightAware ADS-B
Thu 02:10:52 AM 50.7610 134.1240 214° Southwest 489 563 34,000  Level FlightAware ADS-B
Thu 02:11:32 AM 50.6840 134.0430 214° Southwest 489 563 34,000  Level FlightAware ADS-B
Thu 02:12:32 AM 50.5690 133.9230 214° Southwest 489 563 34,000  Level FlightAware ADS-B
Thu 02:13:27 AM 50.4670 133.8180 213° Southwest 489 563 34,000  Level FlightAware ADS-B
Thu 02:14:02 AM 50.3970 133.7450 214° Southwest 488 562 34,000  Level FlightAware ADS-B
Thu 02:14:52 AM 50.3190 133.6650 213° Southwest 488 562 34,000  Level FlightAware ADS-B
Thu 02:15:32 AM 50.2330 133.5770 213° Southwest 487 560 34,000  Level FlightAware ADS-B
Thu 02:16:12 AM 50.1630 133.5050 213° Southwest 488 562 34,000  Level FlightAware ADS-B
Thu 02:16:57 AM 50.0780 133.4200 213° Southwest 486 559 34,000  Level FlightAware ADS-B
Thu 02:17:27 AM 50.0210 133.3620 213° Southwest 486 559 34,000  Level FlightAware ADS-B
Thu 02:18:17 AM 49.9300 133.2710 213° Southwest 489 563 34,000  Level FlightAware ADS-B
Thu 02:19:27 AM 49.7920 133.1330 213° Southwest 492 566 34,000  Level FlightAware ADS-B
Thu 02:20:02 AM 49.7190 133.0610 213° Southwest 494 568 34,000  Level FlightAware ADS-B
Thu 02:20:57 AM 49.6280 132.9700 213° Southwest 497 572 34,000  Level FlightAware ADS-B
Thu 02:21:52 AM 49.5100 132.8550 212° Southwest 499 574 34,000  Level FlightAware ADS-B
Thu 02:22:22 AM 49.4500 132.7960 213° Southwest 500 575 34,000  Level FlightAware ADS-B
Thu 02:23:17 AM 49.3420 132.6900 213° Southwest 502 578 34,000  Level FlightAware ADS-B
Thu 02:24:12 AM 49.2340 132.5850 212° Southwest 503 579 34,000  Level FlightAware ADS-B
Thu 02:24:52 AM 49.1540 132.5080 212° Southwest 504 580 34,000  Level FlightAware ADS-B
Thu 02:25:37 AM 49.0690 132.4260 212° Southwest 505 581 34,000  Level FlightAware ADS-B
Thu 02:26:17 AM 48.9780 132.3390 212° Southwest 504 580 34,000  Level FlightAware ADS-B
Thu 02:26:52 AM 48.9110 132.2760 212° Southwest 505 581 34,000 75 Level FlightAware ADS-B
Thu 02:27:37 AM 48.8280 132.1970 212° Southwest 500 575 34,100 71 Climbing FlightAware ADS-B
Thu 02:28:17 AM 48.7550 132.1270 212° Southwest 492 566 34,100  Level FlightAware ADS-B
Thu 02:29:02 AM 48.6710 132.0490 212° Southwest 491 565 34,100  Level FlightAware ADS-B
Thu 02:29:47 AM 48.5730 131.9570 212° Southwest 491 565 34,100  Level FlightAware ADS-B
Thu 02:30:42 AM 48.4720 131.8630 212° Southwest 489 563 34,100  Level FlightAware ADS-B
Thu 02:31:17 AM 48.3970 131.7920 212° Southwest 490 564 34,100  Level FlightAware ADS-B
Thu 02:32:07 AM 48.3100 131.7120 211° Southwest 490 564 34,100  Level FlightAware ADS-B
Thu 02:32:47 AM 48.2380 131.6460 211° Southwest 490 564 34,100  Level FlightAware ADS-B
Thu 02:33:42 AM 48.1250 131.5430 211° Southwest 491 565 34,100  Level FlightAware ADS-B
Thu 02:34:27 AM 48.0330 131.4580 212° Southwest 492 566 34,100  Level FlightAware ADS-B
Thu 02:35:02 AM 47.9670 131.3980 211° Southwest 493 567 34,100  Level FlightAware ADS-B
Thu 02:35:52 AM 47.8810 131.3200 211° Southwest 492 566 34,100  Level FlightAware ADS-B
Thu 02:36:27 AM 47.8190 131.2650 211° Southwest 492 566 34,100  Level FlightAware ADS-B
Thu 02:37:27 AM 47.6910 131.1490 211° Southwest 493 567 34,100  Level FlightAware ADS-B
Thu 02:38:02 AM 47.6290 131.0970 209° Southwest 494 568 34,100  Level FlightAware ADS-B
Thu 02:38:52 AM 47.5290 131.0170 208° Southwest 497 572 34,100 288 Level FlightAware ADS-B
Thu 02:40:07 AM 47.3770 130.8940 209° Southwest 496 571 34,700 816 Climbing FlightAware ADS-B
Thu 02:40:57 AM 47.2670 130.8050 209° Southwest 500 575 35,800 884 Climbing FlightAware ADS-B
Thu 02:41:42 AM 47.1780 130.7330 209° Southwest 503 579 36,100 212 Climbing FlightAware ADS-B
Thu 02:42:22 AM 47.0910 130.6640 208° Southwest 503 579 36,100  Level FlightAware ADS-B
Thu 02:43:07 AM 47.0020 130.5920 209° Southwest 502 578 36,100  Level FlightAware ADS-B
Thu 02:44:02 AM 46.8950 130.5070 209° Southwest 504 580 36,100  Level FlightAware ADS-B
Thu 02:44:57 AM 46.8160 130.3690 230° Southwest 505 581 36,100  Level FlightAware ADS-B
Thu 02:45:52 AM 46.7710 130.2090 248° West 506 582 36,100  Level FlightAware ADS-B
Thu 02:46:32 AM 46.7420 130.1010 249° West 506 582 36,100  Level FlightAware ADS-B
Thu 02:47:12 AM 46.7120 129.9930 248° West 506 582 36,100  Level FlightAware ADS-B
Thu 02:47:52 AM 46.6820 129.8860 248° West 506 582 36,100  Level FlightAware ADS-B
Thu 02:48:42 AM 46.6450 129.7510 248° West 506 582 36,100  Level FlightAware ADS-B
Thu 02:49:22 AM 46.6150 129.6440 248° West 506 582 36,100  Level FlightAware ADS-B
Thu 02:50:02 AM 46.5850 129.5360 248° West 506 582 36,100  Level FlightAware ADS-B
Thu 02:50:42 AM 46.5550 129.4290 248° West 506 582 36,100  Level FlightAware ADS-B
Thu 02:51:22 AM 46.5250 129.3220 248° West 506 582 36,100  Level FlightAware ADS-B
Thu 02:52:12 AM 46.4880 129.1880 248° West 506 582 36,100  Level FlightAware ADS-B
Thu 02:52:52 AM 46.4580 129.0800 248° West 506 582 36,100  Level FlightAware ADS-B
Thu 02:53:32 AM 46.4280 128.9730 248° West 506 582 36,100  Level FlightAware ADS-B
Thu 02:54:12 AM 46.3980 128.8660 248° West 506 582 36,100  Level FlightAware ADS-B
Thu 02:54:52 AM 46.3690 128.7590 249° West 506 582 36,100  Level FlightAware ADS-B
Thu 02:57:00 AM 46.1242 128.5419 212° Southwest  Level Estimated
Thu 02:58:00 AM 46.0093 128.4408 211° Southwest  Level Estimated
Thu 02:59:00 AM 45.8943 128.3402 211° Southwest  Level Estimated
Thu 03:00:00 AM 45.7792 128.2399 211° Southwest  Level Estimated
Thu 03:01:00 AM 45.6641 128.1401 211° Southwest  Level Estimated
Thu 03:02:00 AM 45.5488 128.0406 211° Southwest  Level Estimated
Thu 03:03:00 AM 45.4335 127.9416 211° Southwest  Level Estimated
Thu 03:04:00 AM 45.3180 127.8430 211° Southwest  Level Estimated
Thu 03:05:00 AM 45.2025 127.7448 211° Southwest  Level Estimated
Thu 03:06:00 AM 45.0869 127.6469 211° Southwest  Level Estimated
Thu 03:07:00 AM 44.9713 127.5495 211° Southwest  Level Estimated
Thu 03:08:00 AM 44.8555 127.4525 211° Southwest  Level Estimated
Thu 03:09:00 AM 44.7397 127.3558 211° Southwest  Level Estimated
Thu 03:10:00 AM 44.6237 127.2596 211° Southwest  Level Estimated
Thu 03:11:00 AM 44.5078 127.1637 211° Southwest  Level Estimated
Thu 03:12:00 AM 44.3917 127.0682 210° Southwest  Level Estimated
Thu 03:13:00 AM 44.2755 126.9731 210° Southwest  Level Estimated
Thu 03:14:00 AM 44.1593 126.8783 210° Southwest  Level Estimated
Thu 03:15:00 AM 44.0429 126.7840 210° Southwest  Level Estimated
Thu 03:16:00 AM 43.9266 126.6900 210° Southwest  Level Estimated
Thu 03:17:00 AM 43.8101 126.5963 210° Southwest  Level Estimated
Thu 03:18:00 AM 43.6935 126.5031 210° Southwest  Level Estimated
Thu 03:19:00 AM 43.5769 126.4102 210° Southwest  Level Estimated
Thu 03:20:00 AM 43.4602 126.3176 210° Southwest  Level Estimated
Thu 03:21:00 AM 43.3434 126.2254 210° Southwest  Level Estimated
Thu 03:22:00 AM 43.2266 126.1336 210° Southwest  Level Estimated
Thu 03:23:00 AM 43.1097 126.0421 210° Southwest  Level Estimated
Thu 03:24:00 AM 42.9927 125.9510 210° Southwest  Level Estimated
Thu 03:25:00 AM 42.8756 125.8602 210° Southwest  Level Estimated
Thu 03:26:00 AM 42.7585 125.7698 210° Southwest  Level Estimated
Thu 03:27:00 AM 42.6413 125.6796 209° Southwest  Level Estimated
Thu 03:28:00 AM 42.5240 125.5899 209° Southwest  Level Estimated
Thu 03:29:00 AM 42.4067 125.5005 209° Southwest  Level Estimated
Thu 03:30:00 AM 42.2893 125.4114 209° Southwest  Level Estimated
Thu 03:31:00 AM 42.1718 125.3226 209° Southwest  Level Estimated
Thu 03:32:00 AM 42.0543 125.2342 209° Southwest  Level Estimated
Thu 03:33:00 AM 41.9366 125.1461 209° Southwest  Level Estimated
Thu 03:34:00 AM 41.8190 125.0583 209° Southwest  Level Estimated
Thu 03:35:00 AM 41.7012 124.9708 209° Southwest  Level Estimated
Thu 03:36:00 AM 41.5834 124.8837 209° Southwest  Level Estimated
Thu 03:37:00 AM 41.4655 124.7969 209° Southwest  Level Estimated
Thu 03:38:00 AM 41.3476 124.7104 209° Southwest  Level Estimated
Thu 03:39:00 AM 41.2295 124.6242 209° Southwest  Level Estimated
Thu 03:40:00 AM 41.1115 124.5383 209° Southwest  Level Estimated
Thu 03:41:00 AM 40.9933 124.4527 209° Southwest  Level Estimated
Thu 03:42:00 AM 40.8751 124.3674 209° Southwest  Level Estimated
Thu 03:43:00 AM 40.7569 124.2825 209° Southwest  Level Estimated
Thu 03:44:00 AM 40.6385 124.1978 209° Southwest  Level Estimated
Thu 03:45:00 AM 40.5201 124.1135 208° Southwest  Level Estimated
Thu 03:46:00 AM 40.4017 124.0294 208° Southwest  Level Estimated
Thu 03:47:00 AM 40.2832 123.9456 208° Southwest  Level Estimated
Thu 03:48:00 AM 40.1646 123.8622 208° Southwest  Level Estimated
Thu 03:49:00 AM 40.0460 123.7790 208° Southwest  Level Estimated
Thu 03:50:00 AM 39.9273 123.6961 208° Southwest  Level Estimated
Thu 03:51:00 AM 39.8085 123.6135 208° Southwest  Level Estimated
Thu 03:52:00 AM 39.6897 123.5311 208° Southwest  Level Estimated
Thu 03:53:00 AM 39.5709 123.4491 208° Southwest  Level Estimated
Thu 03:54:00 AM 39.4519 123.3673 208° Southwest  Level Estimated
Thu 03:55:00 AM 39.3330 123.2859 208° Southwest  Level Estimated
Thu 03:56:00 AM 39.2139 123.2047 208° Southwest  Level Estimated
Thu 03:57:00 AM 39.0948 123.1237 208° Southwest  Level Estimated
Thu 03:58:00 AM 38.9757 123.0431 208° Southwest  Level Estimated
Thu 03:59:00 AM 38.8565 122.9627 208° Southwest  Level Estimated
Thu 04:00:00 AM 38.7372 122.8826 208° Southwest  Level Estimated
Thu 04:01:00 AM 38.6179 122.8027 208° Southwest  Level Estimated
Thu 04:02:00 AM 38.4985 122.7231 208° Southwest  Level Estimated
Thu 04:03:00 AM 38.3791 122.6438 208° Southwest  Level Estimated
Thu 04:04:00 AM 38.2597 122.5648 207° Southwest  Level Estimated
Thu 04:05:00 AM 38.1401 122.4859 207° Southwest  Level Estimated
Thu 04:06:00 AM 38.0205 122.4074 207° Southwest  Level Estimated
Thu 04:07:00 AM 37.9009 122.3291 207° Southwest  Level Estimated
Thu 04:08:00 AM 37.7812 122.2511 207° Southwest  Level Estimated
Thu 04:09:00 AM 37.6615 122.1733 207° Southwest  Level Estimated
Thu 04:10:00 AM 37.5417 122.0958 207° Southwest  Level Estimated
Thu 04:11:00 AM 37.4219 122.0185 207° Southwest  Level Estimated
Thu 04:12:00 AM 37.3020 121.9415 207° Southwest  Level Estimated
Thu 04:13:00 AM 37.1820 121.8647 207° Southwest  Level Estimated
Thu 04:13:27 AM 40.2790 116.2320 207° Southwest 473 544 36,100  Level FlightAware ADS-B
Thu 04:14:00 AM 37.0620 121.7881 207° Southwest  Level Estimated
Thu 04:14:12 AM 40.2180 116.1340 231° Southwest 474 545 36,100  Level FlightAware ADS-B
Thu 04:14:42 AM 40.1740 116.0630 231° Southwest 475 547 36,100  Level FlightAware ADS-B
Thu 04:15:37 AM 40.1060 115.9530 231° Southwest 475 547 36,100  Level FlightAware ADS-B
Thu 04:16:17 AM 40.0590 115.8770 231° Southwest 475 547 36,100  Level FlightAware ADS-B
Thu 04:16:57 AM 40.0120 115.8020 231° Southwest 475 547 36,100  Level FlightAware ADS-B
Thu 04:17:52 AM 39.9060 115.6550 227° Southwest 483 556 36,100  Level FlightAware ADS-B
Thu 04:18:47 AM 39.8260 115.5450 227° Southwest 483 556 36,100  Level FlightAware ADS-B
Thu 04:19:27 AM 39.7750 115.4720 228° Southwest 483 556 36,100  Level FlightAware ADS-B
Thu 04:20:07 AM 39.7230 115.4000 227° Southwest 483 556 36,100  Level FlightAware ADS-B
Thu 04:20:47 AM 39.6710 115.3280 227° Southwest 483 556 36,100  Level FlightAware ADS-B
Thu 04:21:27 AM 39.6190 115.2560 227° Southwest 483 556 36,100  Level FlightAware ADS-B
Thu 04:22:07 AM 39.5670 115.1840 227° Southwest 483 556 36,100  Level FlightAware ADS-B
Thu 04:22:57 AM 39.5030 115.0930 228° Southwest 483 556 36,100  Level FlightAware ADS-B
Thu 04:23:37 AM 39.4510 115.0220 227° Southwest 483 556 36,100  Level FlightAware ADS-B
Thu 04:24:07 AM 39.4120 114.9680 227° Southwest 483 556 36,100  Level FlightAware ADS-B
Thu 04:24:57 AM 39.3470 114.8780 227° Southwest 483 556 36,100  Level FlightAware ADS-B
Thu 04:25:37 AM 39.2950 114.8060 227° Southwest 483 556 36,100  Level FlightAware ADS-B
Thu 04:26:17 AM 39.2430 114.7340 227° Southwest 483 556 36,100  Level FlightAware ADS-B
Thu 04:26:57 AM 39.1920 114.6620 228° Southwest 483 556 36,100  Level FlightAware ADS-B
Thu 04:27:37 AM 39.1400 114.5910 227° Southwest 483 556 36,100 -19 Level FlightAware ADS-B
Thu 04:30:00 AM 38.8207 114.6312 174° South  Level FlightAware Approximate
Thu 04:31:00 AM 38.6867 114.6479 174° South  Level FlightAware Approximate
Thu 04:32:00 AM 38.5527 114.6646 174° South  Level FlightAware Approximate
Thu 04:33:00 AM 38.4187 114.6812 174° South  Level FlightAware Approximate
Thu 04:34:00 AM 38.2848 114.6978 174° South  Level FlightAware Approximate
Thu 04:35:00 AM 38.1503 114.6899 175° South  Level Estimated
Thu 04:36:00 AM 38.0163 114.7072 174° South  Level FlightAware Approximate
Thu 04:37:00 AM 37.8824 114.7243 174° South  Level FlightAware Approximate
Thu 04:38:00 AM 37.7485 114.7415 174° South  Level FlightAware Approximate
Thu 04:39:00 AM 37.6146 114.7585 174° South  Level FlightAware Approximate
Thu 04:40:00 AM 37.4806 114.7755 174° South  Level FlightAware Approximate
Thu 04:41:00 AM 37.3467 114.7925 174° South  Level FlightAware Approximate
Thu 04:42:00 AM 37.2127 114.8093 174° South  Level FlightAware Approximate
Thu 04:43:00 AM 37.0788 114.8262 174° South  Level FlightAware Approximate
Thu 04:44:00 AM 36.9448 114.8429 174° South  Level FlightAware Approximate
Thu 04:45:00 AM 36.8109 114.8596 174° South  Level FlightAware Approximate
Thu 04:46:00 AM 36.6769 114.8763 174° South  Level FlightAware Approximate
Thu 04:47:00 AM 36.5430 114.8929 174° South  Level FlightAware Approximate
Thu 04:48:00 AM 36.4090 114.9094 174° South  Level FlightAware Approximate
Thu 04:49:00 AM 36.2747 114.8984 188° South  Level Estimated
Thu 04:50:00 AM 36.1414 114.8751 188° South  Level FlightAware Approximate
Thu 04:51:00 AM 36.0081 114.8519 188° South  Level FlightAware Approximate
Thu 04:52:00 AM 35.8748 114.8288 188° South  Level FlightAware Approximate
Thu 04:53:00 AM 35.7415 114.8057 188° South  Level FlightAware Approximate
Thu 04:54:00 AM 35.6082 114.7828 188° South  Level FlightAware Approximate
Thu 04:55:00 AM 35.4748 114.7599 188° South  Level FlightAware Approximate
Thu 04:56:00 AM 35.3415 114.7370 188° South  Level FlightAware Approximate
Thu 04:57:00 AM 35.2082 114.7143 188° South  Level FlightAware Approximate
Thu 04:58:00 AM 35.0748 114.6916 188° South  Level FlightAware Approximate
Thu 04:59:00 AM 34.9415 114.6690 188° South  Level FlightAware Approximate
Thu 05:00:00 AM 34.8082 114.6465 188° South  Level FlightAware Approximate
Thu 05:01:00 AM 34.6748 114.6240 188° South  Level FlightAware Approximate
Thu 05:02:00 AM 34.5415 114.6017 188° South  Level FlightAware Approximate
Thu 05:03:00 AM 34.4081 114.5794 188° South  Level FlightAware Approximate
Thu 05:04:00 AM 34.2748 114.5571 188° South  Level FlightAware Approximate
Thu 05:05:00 AM 34.1414 114.5349 188° South  Level FlightAware Approximate
Thu 05:06:00 AM 34.0080 114.5128 188° South  Level FlightAware Approximate
Thu 05:07:00 AM 33.8747 114.4908 188° South  Level FlightAware Approximate
Thu 05:08:00 AM 33.7413 114.4688 188° South  Level FlightAware Approximate
Thu 05:09:00 AM 33.6079 114.4470 188° South  Level FlightAware Approximate
Thu 05:10:00 AM 33.4745 114.4251 188° South  Level FlightAware Approximate
Thu 05:11:00 AM 33.3411 114.4034 188° South  Level FlightAware Approximate
Thu 05:12:00 AM 33.2077 114.3817 188° South  Level FlightAware Approximate
Thu 05:13:00 AM 33.0744 114.3600 188° South  Level FlightAware Approximate
Thu 05:14:00 AM 32.9410 114.3385 188° South  Level FlightAware Approximate
Thu 05:15:00 AM 32.8076 114.3170 188° South  Level FlightAware Approximate
Thu 05:16:00 AM 32.6742 114.2956 188° South  Level FlightAware Approximate
Thu 05:17:00 AM 32.5407 114.2742 188° South  Level FlightAware Approximate
Thu 05:18:00 AM 32.4073 114.2529 188° South  Level FlightAware Approximate
Thu 05:19:00 AM 32.2739 114.2317 188° South  Level FlightAware Approximate
Thu 05:20:00 AM 32.1405 114.2105 188° South  Level FlightAware Approximate
Thu 05:21:00 AM 32.0071 114.1894 188° South  Level FlightAware Approximate
Thu 05:22:00 AM 31.8737 114.1683 188° South  Level FlightAware Approximate
Thu 05:23:00 AM 31.7402 114.1473 188° South  Level FlightAware Approximate
Thu 05:24:00 AM 31.6068 114.1264 188° South  Level FlightAware Approximate
Thu 05:25:00 AM 31.4734 114.1055 188° South  Level FlightAware Approximate
Thu 05:26:00 AM 31.3399 114.0847 188° South  Level FlightAware Approximate
Thu 05:27:00 AM 31.2065 114.0639 188° South  Level FlightAware Approximate
Thu 05:28:00 AM 31.0719 114.0615 188° South  Level Estimated
Thu 05:29:00 AM 30.9386 114.0397 188° South  Level FlightAware Approximate
Thu 05:30:00 AM 30.8052 114.0181 188° South  Level FlightAware Approximate
Thu 05:31:00 AM 30.6719 113.9965 188° South  Level FlightAware Approximate
Thu 05:32:00 AM 30.5386 113.9749 188° South  Level FlightAware Approximate
Thu 05:33:00 AM 30.4052 113.9534 188° South  Level FlightAware Approximate
Thu 05:34:00 AM 30.2719 113.9320 188° South  Level FlightAware Approximate
Thu 05:35:00 AM 30.1386 113.9106 188° South  Level FlightAware Approximate
Thu 05:36:00 AM 30.0052 113.8893 188° South  Level FlightAware Approximate
Thu 05:37:00 AM 29.8719 113.8680 188° South  Level FlightAware Approximate
Thu 05:38:00 AM 29.7385 113.8468 188° South  Level FlightAware Approximate
Thu 05:39:00 AM 29.6052 113.8256 188° South  Level FlightAware Approximate
Thu 05:40:00 AM 29.4718 113.8045 188° South  Level FlightAware Approximate
Thu 05:41:00 AM 29.3384 113.7835 188° South  Level FlightAware Approximate
Thu 05:42:00 AM 29.2051 113.7625 188° South  Level FlightAware Approximate
Thu 05:43:00 AM 29.0717 113.7416 188° South  Level FlightAware Approximate
Thu 05:44:00 AM 28.9383 113.7207 188° South  Level FlightAware Approximate
Thu 05:45:00 AM 28.8049 113.6999 188° South  Level FlightAware Approximate
Thu 05:46:00 AM 28.6716 113.6791 188° South  Level FlightAware Approximate
Thu 05:47:00 AM 28.5382 113.6584 188° South  Level FlightAware Approximate
Thu 05:48:00 AM 28.4048 113.6377 188° South  Level FlightAware Approximate
Thu 05:49:00 AM 28.2714 113.6171 188° South  Level FlightAware Approximate
Thu 05:50:00 AM 28.1380 113.5965 188° South  Level FlightAware Approximate
Thu 05:51:00 AM 28.0046 113.5760 188° South  Level FlightAware Approximate
Thu 05:52:00 AM 27.8712 113.5556 188° South  Level FlightAware Approximate
Thu 05:53:00 AM 27.7378 113.5352 188° South  Level FlightAware Approximate
Thu 05:54:00 AM 27.5967 113.5228 165° South  Level FlightAware Approximate
Thu 05:55:00 AM 27.4668 113.5626 165° South  Level FlightAware Approximate
Thu 05:56:00 AM 27.3369 113.6022 165° South  Level FlightAware Approximate
Thu 05:57:00 AM 27.2069 113.6418 165° South  Level FlightAware Approximate
Thu 05:58:00 AM 27.0770 113.6813 165° South  Level FlightAware Approximate
Thu 05:59:00 AM 26.9470 113.7207 165° South  Level FlightAware Approximate
Thu 06:00:00 AM 26.8171 113.7600 165° South  Level FlightAware Approximate
Thu 06:01:00 AM 26.6871 113.7992 165° South  Level FlightAware Approximate
Thu 06:02:00 AM 26.5571 113.8383 165° South  Level FlightAware Approximate
Thu 06:03:00 AM 26.4271 113.8774 165° South  Level FlightAware Approximate
Thu 06:04:00 AM 26.2971 113.9163 165° South  Level FlightAware Approximate
Thu 06:05:00 AM 26.1670 113.9552 165° South  Level FlightAware Approximate
Thu 06:06:00 AM 26.0370 113.9939 165° South  Level FlightAware Approximate
Thu 06:07:00 AM 25.9069 114.0322 165° South  Level FlightAware Approximate
Thu 06:08:00 AM 25.7767 114.0702 165° South  Level FlightAware Approximate
Thu 06:09:00 AM 25.6465 114.1082 165° South  Level FlightAware Approximate
Thu 06:10:00 AM 25.5163 114.1461 165° South  Level FlightAware Approximate
Thu 06:11:00 AM 25.3860 114.1839 165° South  Level FlightAware Approximate
Thu 06:12:00 AM 25.2558 114.2216 165° South  Level FlightAware Approximate
Thu 06:13:00 AM 25.1256 114.2593 165° South  Level FlightAware Approximate
Thu 06:13:42 AM 24.4530 114.0370 191° South 472 543 34,100  Level FlightAware ADS-B
Thu 06:14:00 AM 24.9939 114.2435 191° South  Level FlightAware Approximate
Thu 06:14:27 AM 24.3590 114.0190 190° South 472 543 34,100  Level FlightAware ADS-B
Thu 06:15:07 AM 24.2730 114.0020 190° South 472 543 34,100  Level FlightAware ADS-B
Thu 06:15:47 AM 24.1880 113.9860 190° South 472 543 34,100  Level FlightAware ADS-B
Thu 06:16:32 AM 24.0910 113.9670 190° South 473 544 34,100  Level FlightAware ADS-B
Thu 06:17:12 AM 24.0110 113.9520 190° South 473 544 34,100  Level FlightAware ADS-B
Thu 06:17:57 AM 23.9070 113.9320 190° South 473 544 34,100  Level FlightAware ADS-B
Thu 06:18:37 AM 23.8200 113.9150 190° South 473 544 34,100  Level FlightAware ADS-B
Thu 06:19:17 AM 23.7370 113.8980 191° South 473 544 34,100  Level FlightAware ADS-B
Thu 06:19:57 AM 23.6470 113.8800 190° South 473 544 34,100  Level FlightAware ADS-B
Thu 06:20:42 AM 23.5470 113.8600 190° South 472 543 34,100  Level FlightAware ADS-B
Thu 06:21:22 AM 23.4610 113.8430 190° South 471 542 34,100  Level FlightAware ADS-B
Thu 06:22:07 AM 23.3650 113.8240 190° South 470 541 34,100  Level FlightAware ADS-B
Thu 06:22:47 AM 23.2800 113.8070 190° South 469 540 34,100  Level FlightAware ADS-B
Thu 06:23:32 AM 23.1810 113.7880 190° South 467 537 34,100  Level FlightAware ADS-B
Thu 06:24:12 AM 23.1000 113.7720 190° South 466 536 34,100  Level FlightAware ADS-B
Thu 06:24:57 AM 23.0040 113.7530 190° South 464 534 34,100  Level FlightAware ADS-B
Thu 06:25:37 AM 22.9200 113.7360 191° South 462 532 34,100  Level FlightAware ADS-B
Thu 06:26:17 AM 22.8350 113.7190 190° South 459 528 34,100  Level FlightAware ADS-B
Thu 06:27:02 AM 22.7390 113.7010 190° South 456 525 34,100  Level FlightAware ADS-B
Thu 06:27:42 AM 22.6560 113.6840 191° South 453 521 34,100 -750 Level FlightAware ADS-B
Thu 06:28:22 AM 22.5730 113.6680 190° South 462 532 33,100 -2,188 Descending FlightAware ADS-B
Thu 06:29:07 AM 22.4800 113.6500 190° South 461 531 31,000 -2,682 Descending FlightAware ADS-B
Thu 06:29:47 AM 22.3970 113.6330 191° South 456 525 29,300 -2,625 Descending FlightAware ADS-B
Thu 06:30:27 AM 22.3170 113.6180 190° South 450 518 27,500 -1,694 Descending FlightAware ADS-B
Thu 06:31:12 AM 22.2290 113.6010 190° South 448 516 26,900 -424 Descending FlightAware ADS-B
Thu 06:31:52 AM 22.1600 113.5880 190° South 448 516 26,900  Level FlightAware ADS-B
Thu 06:32:32 AM 22.0900 113.5740 190° South 448 516 26,900 -2,321 Level FlightAware ADS-B
Thu 06:35:00 AM 22.0849 113.7698 62° Northeast  Level FlightAware Approximate
Thu 06:36:00 AM 22.1495 113.8891 59° Northeast  Level FlightAware Approximate
Thu 06:37:00 AM 22.2172 114.0064 57° Northeast  Level FlightAware Approximate
Thu 06:38:00 AM 22.2745 114.1297 57° Northeast  Level FlightAware Approximate
Thu 06:38:12 AM 21.8300 113.8590 57° Northeast 279 321 12,200  Level FlightAware ADS-B
Thu 06:38:57 AM 21.8750 113.8900 33° Northeast 279 321 12,200  Level FlightAware ADS-B
Thu 06:39:37 AM 21.9130 113.9150 31° Northeast 279 321 12,200 -3,733 Level FlightAware ADS-B
Thu 06:39:42 AM 21.9210 113.9220 39° Northeast 265 305 9,400 -4,200 Descending FlightAware ADS-B
Thu 06:40:17 AM 21.9540 113.9440 32° Northeast 265 305 9,400 -1,662 Level FlightAware ADS-B
Thu 06:40:47 AM 21.9990 113.9380 353° North 260 299 7,600 -2,500 Descending FlightAware ADS-B
Thu 06:41:17 AM 22.0140 113.9040 295° West 264 304 6,900 -1,309 Descending FlightAware ADS-B
Thu 06:41:42 AM 22.0220 113.8750 287° West 264 304 6,400 -600 Descending FlightAware ADS-B
Thu 06:42:07 AM 22.0300 113.8440 286° West 264 304 6,400 -829 Level FlightAware ADS-B
Thu 06:44:00 AM 22.2654 113.9036 57° Northeast  Level Estimated
Thu 06:45:00 AM 22.3089 113.9146 57° Northeast  Level Estimated
Thu 06:45:12 AM 22.1840 113.7400 57° Northeast 214 246 3,500  Level FlightAware ADS-B
Thu 06:45:37 AM 22.2070 113.7370 353° North 214 246 3,500 -675 Level FlightAware ADS-B
Thu 06:48:00 AM 22.3089 113.9146 67° East  Level Estimated
Thu 06:49:00 AM 22.3089 113.9146 57° Northeast  Level Estimated
Thu 06:49:12 AM 22.3000 113.8640 57° Northeast 143 165 800  Level FlightAware ADS-B
Thu 06:49:27 AM 22.3030 113.8740 72° East 139 160 600 -655 Descending FlightAware ADS-B
Thu 06:50:07 AM 22.3120 113.9010 70° East 145 167 200 -600 Descending FlightAware ADS-B

Login

Don't have an account? Register now (free) for customized features, flight alerts, and more!